createdAt,value
2018-05-03T00:00:20.275Z,52.56
2018-05-03T00:02:48.889Z,53.15
2018-05-03T00:05:17.451Z,53.50
2018-05-03T00:07:46.003Z,53.28
2018-05-03T00:10:14.562Z,53.42
2018-05-03T00:12:43.126Z,53.58
2018-05-03T00:15:11.729Z,53.54
2018-05-03T00:17:40.285Z,53.75
2018-05-03T00:20:08.854Z,54.00
2018-05-03T00:22:37.425Z,54.16
2018-05-03T00:25:05.998Z,54.35
2018-05-03T00:27:34.562Z,54.67
2018-05-03T00:30:04.495Z,54.98
2018-05-03T00:32:33.047Z,54.94
2018-05-03T00:35:01.244Z,54.85
2018-05-03T00:37:29.799Z,54.63
2018-05-03T00:39:58.358Z,54.27
2018-05-03T00:42:26.910Z,54.19
2018-05-03T00:44:55.467Z,54.43
2018-05-03T00:47:24.037Z,54.28
2018-05-03T00:49:52.605Z,54.14
2018-05-03T00:52:21.196Z,54.00
2018-05-03T00:54:49.057Z,54.21
2018-05-03T00:57:17.280Z,54.63
2018-05-03T00:59:45.848Z,54.58
2018-05-03T01:04:48.366Z,54.65
2018-05-03T01:07:16.923Z,54.76
2018-05-03T01:09:45.483Z,54.97
2018-05-03T01:12:14.038Z,55.12
2018-05-03T01:14:42.629Z,54.59
2018-05-03T01:17:11.555Z,53.41
2018-05-03T01:19:40.119Z,52.93
2018-05-03T01:22:08.719Z,53.28
2018-05-03T01:24:37.279Z,54.14
2018-05-03T01:27:05.845Z,53.14
2018-05-03T01:29:34.410Z,53.74
2018-05-03T01:32:02.983Z,54.40
2018-05-03T01:34:31.534Z,54.63
2018-05-03T01:37:00.091Z,54.66
2018-05-03T01:39:28.644Z,54.95
2018-05-03T01:41:57.247Z,54.81
2018-05-03T01:44:25.807Z,54.90
2018-05-03T01:46:54.550Z,54.35
2018-05-03T01:49:23.113Z,53.59
2018-05-03T01:51:51.667Z,53.92
2018-05-03T01:54:20.223Z,54.41
2018-05-03T01:56:48.788Z,54.38
2018-05-03T01:59:17.372Z,54.43
2018-05-03T02:01:45.698Z,54.80
2018-05-03T02:04:14.347Z,54.86
2018-05-03T02:06:42.899Z,55.25
2018-05-03T02:09:11.476Z,55.42
2018-05-03T02:11:40.036Z,55.46
2018-05-03T02:14:08.622Z,55.42
2018-05-03T02:16:37.179Z,55.50
2018-05-03T02:19:05.743Z,55.82
2018-05-03T02:21:34.305Z,56.02
2018-05-03T02:24:02.860Z,56.41
2018-05-03T02:26:31.432Z,56.67
2018-05-03T02:28:59.991Z,57.02
2018-05-03T02:31:28.583Z,57.52
2018-05-03T02:33:57.139Z,57.69
2018-05-03T02:36:26.721Z,57.69
2018-05-03T02:38:55.311Z,57.74
2018-05-03T02:41:23.871Z,57.85
2018-05-03T02:43:52.476Z,57.68
2018-05-03T02:46:21.026Z,57.66
2018-05-03T02:48:49.622Z,57.83
2018-05-03T02:51:18.197Z,57.86
2018-05-03T02:53:47.729Z,57.65
2018-05-03T02:56:16.302Z,57.48
2018-05-03T02:58:55.959Z,57.62
2018-05-03T03:01:41.121Z,57.60
2018-05-03T03:04:26.106Z,57.82
2018-05-03T03:10:33.927Z,58.11
2018-05-03T03:16:52.958Z,58.55
2018-05-03T03:22:46.263Z,59.17
2018-05-03T03:28:54.367Z,59.91
2018-05-03T03:31:39.524Z,60.25
2018-05-03T03:34:13.381Z,60.14
2018-05-03T03:40:02.745Z,59.69
2018-05-03T03:45:39.653Z,59.56
2018-05-03T03:48:07.917Z,59.42
2018-05-03T03:50:36.488Z,59.14
2018-05-03T03:53:05.159Z,58.92
2018-05-03T03:55:33.715Z,58.64
2018-05-03T03:58:02.349Z,58.21
2018-05-03T04:00:31.054Z,58.18
2018-05-03T04:02:59.636Z,58.15
2018-05-03T04:05:28.212Z,58.13
2018-05-03T04:07:56.785Z,58.05
2018-05-03T04:10:25.346Z,58.14
2018-05-03T04:12:53.900Z,58.69
2018-05-03T04:15:22.522Z,60.18
2018-05-03T04:18:02.116Z,60.43
2018-05-03T04:23:52.073Z,60.30
2018-05-03T04:26:20.640Z,60.44
2018-05-03T04:28:49.195Z,60.70
2018-05-03T04:31:17.759Z,60.33
2018-05-03T04:33:46.321Z,59.61
2018-05-03T04:36:14.881Z,57.70
2018-05-03T04:38:43.453Z,55.86
2018-05-03T04:41:12.074Z,54.75
2018-05-03T04:43:40.686Z,53.80
2018-05-03T04:46:09.238Z,53.50
2018-05-03T04:48:38.573Z,53.06
2018-05-03T04:51:07.138Z,50.79
2018-05-03T04:53:35.713Z,47.98
2018-05-03T04:56:04.324Z,46.65
2018-05-03T04:58:32.918Z,44.97
2018-05-03T05:01:01.671Z,43.46
2018-05-03T05:03:30.232Z,43.78
2018-05-03T05:05:58.796Z,42.17
2018-05-03T05:08:27.359Z,42.15
2018-05-03T05:10:55.977Z,42.00
2018-05-03T05:13:24.580Z,41.58
2018-05-03T05:15:52.958Z,41.34
2018-05-03T05:18:21.534Z,41.78
2018-05-03T05:20:50.116Z,42.39
2018-05-03T05:23:18.704Z,43.18
2018-05-03T05:25:47.261Z,43.90
2018-05-03T05:28:15.831Z,44.61
2018-05-03T05:30:44.460Z,45.30
2018-05-03T05:33:13.148Z,45.96
2018-05-03T05:35:41.875Z,46.57
2018-05-03T05:38:10.435Z,47.07
2018-05-03T05:40:39.003Z,47.47
2018-05-03T05:43:07.668Z,47.85
2018-05-03T05:45:36.282Z,47.44
2018-05-03T05:48:04.877Z,47.62
2018-05-03T05:50:33.446Z,47.51
2018-05-03T05:53:02.047Z,47.44
2018-05-03T05:55:30.598Z,47.29
2018-05-03T05:57:59.163Z,47.33
2018-05-03T06:00:27.754Z,47.80
2018-05-03T06:02:56.330Z,47.81
2018-05-03T06:05:24.921Z,48.18
2018-05-03T06:07:53.485Z,48.22
2018-05-03T06:10:22.144Z,48.12
2018-05-03T06:12:50.932Z,48.16
2018-05-03T06:15:19.520Z,48.77
2018-05-03T06:17:48.089Z,48.86
2018-05-03T06:20:16.639Z,48.94
2018-05-03T06:22:45.294Z,49.00
2018-05-03T06:25:13.907Z,49.42
2018-05-03T06:27:42.490Z,49.02
2018-05-03T06:30:11.087Z,49.40
2018-05-03T06:32:39.688Z,49.62
2018-05-03T06:35:08.260Z,49.52
2018-05-03T06:37:36.831Z,49.57
2018-05-03T06:40:05.483Z,49.37
2018-05-03T06:42:35.068Z,49.45
2018-05-03T06:45:03.678Z,49.10
2018-05-03T06:47:32.245Z,48.90
2018-05-03T06:50:00.853Z,48.33
2018-05-03T06:52:29.472Z,48.15
2018-05-03T06:54:58.047Z,47.80
2018-05-03T06:57:26.728Z,47.68
2018-05-03T06:59:55.023Z,47.40
2018-05-03T07:02:23.602Z,47.42
2018-05-03T07:04:52.160Z,47.40
2018-05-03T07:07:20.714Z,47.23
2018-05-03T07:09:49.320Z,46.63
2018-05-03T07:12:17.665Z,46.53
2018-05-03T07:14:46.292Z,46.80
2018-05-03T07:17:14.867Z,46.03
2018-05-03T07:19:43.572Z,45.76
2018-05-03T07:22:12.234Z,44.99
2018-05-03T07:24:41.056Z,44.32
2018-05-03T07:27:10.430Z,43.97
2018-05-03T07:29:38.674Z,44.11
2018-05-03T07:32:07.244Z,44.36
2018-05-03T07:34:35.857Z,44.57
2018-05-03T07:37:04.128Z,44.40
2018-05-03T07:39:32.683Z,45.12
2018-05-03T07:42:01.248Z,44.30
2018-05-03T07:44:29.840Z,44.33
2018-05-03T07:46:58.395Z,44.79
2018-05-03T07:49:26.982Z,44.88
2018-05-03T07:51:56.562Z,44.48
2018-05-03T07:54:25.130Z,45.32
2018-05-03T07:56:53.698Z,45.07
2018-05-03T07:59:22.254Z,44.71
2018-05-03T08:01:50.807Z,44.61
2018-05-03T08:04:19.364Z,44.01
2018-05-03T08:06:47.935Z,43.79
2018-05-03T08:09:16.485Z,43.92
2018-05-03T08:11:45.086Z,43.17
2018-05-03T08:14:13.644Z,42.53
2018-05-03T08:16:42.216Z,42.74
2018-05-03T08:19:10.847Z,42.68
2018-05-03T08:21:39.507Z,42.66
2018-05-03T08:24:08.102Z,42.39
2018-05-03T08:26:36.675Z,42.42
2018-05-03T08:29:05.244Z,43.13
2018-05-03T08:31:33.857Z,42.96
2018-05-03T08:34:02.418Z,43.30
2018-05-03T08:36:30.990Z,43.44
2018-05-03T08:38:59.568Z,43.39
2018-05-03T08:41:28.131Z,43.02
2018-05-03T08:43:56.728Z,43.20
2018-05-03T08:46:25.368Z,42.74
2018-05-03T08:48:53.925Z,42.79
2018-05-03T08:51:22.523Z,42.35
2018-05-03T08:53:51.105Z,41.93
2018-05-03T08:56:19.663Z,42.14
2018-05-03T08:58:48.251Z,42.10
2018-05-03T09:01:16.679Z,41.53
2018-05-03T09:03:45.415Z,42.60
2018-05-03T09:06:13.967Z,40.81
2018-05-03T09:08:42.553Z,41.15
2018-05-03T09:11:11.171Z,41.33
2018-05-03T09:13:39.864Z,41.79
2018-05-03T09:16:08.447Z,41.70
2018-05-03T09:18:37.003Z,40.91
2018-05-03T09:21:05.569Z,40.94
2018-05-03T09:23:34.130Z,41.43
2018-05-03T09:26:02.756Z,41.34
2018-05-03T09:28:31.317Z,41.30
2018-05-03T09:30:59.909Z,41.84
2018-05-03T09:33:28.515Z,41.83
2018-05-03T09:35:57.147Z,41.59
2018-05-03T09:38:25.762Z,41.62
2018-05-03T09:40:54.385Z,41.49
2018-05-03T09:43:22.940Z,41.60
2018-05-03T09:45:51.508Z,40.58
2018-05-03T09:48:20.077Z,41.13
2018-05-03T09:50:48.707Z,41.36
2018-05-03T09:53:17.270Z,40.58
2018-05-03T09:55:45.831Z,41.08
2018-05-03T09:58:14.392Z,41.14
2018-05-03T10:00:42.948Z,40.96
2018-05-03T10:03:11.503Z,40.88
2018-05-03T10:05:40.119Z,41.20
2018-05-03T10:08:08.681Z,41.16
2018-05-03T10:10:37.285Z,41.06
2018-05-03T10:13:06.012Z,40.00
2018-05-03T10:15:34.579Z,40.29
2018-05-03T10:18:03.147Z,40.35
2018-05-03T10:20:31.720Z,39.73
2018-05-03T10:23:00.280Z,39.21
2018-05-03T10:25:28.851Z,38.03
2018-05-03T10:27:57.448Z,38.24
2018-05-03T10:30:26.860Z,37.95
2018-05-03T10:32:55.428Z,37.81
2018-05-03T10:35:24.043Z,37.02
2018-05-03T10:37:52.594Z,37.00
2018-05-03T10:40:21.150Z,36.41
2018-05-03T10:42:49.726Z,36.58
2018-05-03T10:45:18.307Z,37.10
2018-05-03T10:47:46.867Z,36.71
2018-05-03T10:50:15.459Z,36.83
2018-05-03T10:52:44.084Z,36.13
2018-05-03T10:55:12.653Z,33.89
2018-05-03T10:57:41.224Z,34.43
2018-05-03T11:00:09.878Z,33.87
2018-05-03T11:02:38.430Z,33.88
2018-05-03T11:05:07.020Z,34.03
2018-05-03T11:07:35.625Z,33.71
2018-05-03T11:10:05.135Z,33.96
2018-05-03T11:12:33.713Z,33.87
2018-05-03T11:15:02.341Z,34.90
2018-05-03T11:17:30.898Z,35.02
2018-05-03T11:19:59.463Z,34.97
2018-05-03T11:22:28.027Z,35.40
2018-05-03T11:24:56.723Z,35.48
2018-05-03T11:27:25.293Z,35.70
2018-05-03T11:29:53.866Z,34.85
2018-05-03T11:32:22.510Z,35.38
2018-05-03T11:34:51.313Z,34.73
2018-05-03T11:37:19.638Z,34.95
2018-05-03T11:39:48.191Z,35.39
2018-05-03T11:42:16.754Z,35.98
2018-05-03T11:44:45.333Z,36.36
2018-05-03T11:47:13.891Z,35.64
2018-05-03T11:49:42.458Z,35.86
2018-05-03T11:52:11.031Z,36.13
2018-05-03T11:54:39.455Z,36.29
2018-05-03T11:57:08.182Z,36.72
2018-05-03T11:59:36.757Z,36.97
2018-05-03T12:02:05.357Z,37.54
2018-05-03T12:04:33.983Z,37.91
2018-05-03T12:07:02.603Z,39.29
2018-05-03T12:09:31.245Z,43.46
2018-05-03T12:11:59.819Z,46.42
2018-05-03T12:14:28.405Z,47.87
2018-05-03T12:16:56.960Z,49.27
2018-05-03T12:19:25.537Z,51.96
2018-05-03T12:21:54.304Z,55.86
2018-05-03T12:24:22.902Z,59.42
2018-05-03T12:26:51.639Z,61.74
2018-05-03T12:29:20.243Z,64.10
2018-05-03T12:31:48.822Z,65.21
2018-05-03T12:34:17.398Z,62.72
2018-05-03T12:36:45.986Z,60.66
2018-05-03T12:39:14.547Z,64.45
2018-05-03T12:41:43.113Z,64.73
2018-05-03T12:44:11.696Z,64.39
2018-05-03T12:46:40.320Z,63.18
2018-05-03T12:49:08.898Z,63.27
2018-05-03T12:51:37.487Z,63.04
2018-05-03T12:54:06.056Z,63.33
2018-05-03T12:56:34.668Z,63.49
2018-05-03T12:59:03.266Z,64.27
2018-05-03T13:01:31.883Z,65.13
2018-05-03T13:04:00.456Z,64.54
2018-05-03T13:06:29.038Z,64.54
2018-05-03T13:08:57.606Z,64.16
2018-05-03T13:11:26.175Z,64.75
2018-05-03T13:13:54.870Z,64.42
2018-05-03T13:16:23.549Z,63.18
2018-05-03T13:18:52.417Z,63.47
2018-05-03T13:21:21.000Z,64.19
2018-05-03T13:23:49.649Z,64.70
2018-05-03T13:26:17.859Z,64.76
2018-05-03T13:28:46.416Z,64.41
2018-05-03T13:31:15.027Z,63.35
2018-05-03T13:33:43.576Z,64.57
2018-05-03T13:36:12.188Z,64.08
2018-05-03T13:38:40.754Z,63.95
2018-05-03T13:41:09.256Z,63.77
2018-05-03T13:43:38.010Z,63.90
2018-05-03T13:46:06.668Z,64.34
2018-05-03T13:48:35.243Z,64.67
2018-05-03T13:51:03.459Z,65.32
2018-05-03T13:53:32.027Z,65.80
2018-05-03T13:56:00.715Z,66.00
2018-05-03T13:58:29.292Z,66.37
2018-05-03T14:00:57.848Z,66.93
2018-05-03T14:03:26.465Z,66.98
2018-05-03T14:05:55.095Z,67.21
2018-05-03T14:08:23.664Z,67.59
2018-05-03T14:10:53.014Z,68.46
2018-05-03T14:13:21.662Z,69.96
2018-05-03T14:15:50.274Z,70.58
2018-05-03T14:18:18.879Z,70.86
2018-05-03T14:20:47.538Z,70.42
2018-05-03T14:23:16.292Z,69.46
2018-05-03T14:25:44.891Z,69.61
2018-05-03T14:28:13.483Z,69.26
2018-05-03T14:30:42.092Z,68.20
2018-05-03T14:33:10.734Z,67.87
2018-05-03T14:35:39.342Z,67.90
2018-05-03T14:38:07.918Z,66.98
2018-05-03T14:40:36.510Z,67.06
2018-05-03T14:43:05.065Z,66.97
2018-05-03T14:45:33.689Z,65.39
2018-05-03T14:48:02.268Z,64.53
2018-05-03T14:50:30.854Z,64.02
2018-05-03T14:52:59.469Z,63.86
2018-05-03T14:55:28.039Z,63.91
2018-05-03T14:57:56.683Z,63.85
2018-05-03T15:00:25.289Z,64.13
2018-05-03T15:02:53.935Z,64.28
2018-05-03T15:05:22.520Z,64.80
2018-05-03T15:07:51.180Z,64.35
2018-05-03T15:10:19.382Z,63.18
2018-05-03T15:12:48.184Z,62.46
2018-05-03T15:15:16.717Z,62.38
2018-05-03T15:17:45.296Z,61.45
2018-05-03T15:20:13.878Z,61.77
2018-05-03T15:22:42.496Z,62.07
2018-05-03T15:25:11.075Z,64.40
2018-05-03T15:27:40.437Z,65.43
2018-05-03T15:30:09.048Z,65.07
2018-05-03T15:32:37.620Z,64.43
2018-05-03T15:35:06.022Z,64.40
2018-05-03T15:37:34.367Z,64.29
2018-05-03T15:40:02.994Z,65.46
2018-05-03T15:42:31.568Z,65.85
2018-05-03T15:44:59.839Z,65.73
2018-05-03T15:47:29.581Z,64.45
2018-05-03T15:49:58.402Z,65.14
2018-05-03T15:52:27.161Z,62.91
2018-05-03T15:54:55.853Z,62.59
2018-05-03T15:57:24.598Z,62.11
2018-05-03T15:59:53.182Z,61.08
2018-05-03T16:02:21.739Z,60.80
2018-05-03T16:04:50.295Z,61.00
2018-05-03T16:07:18.857Z,61.24
2018-05-03T16:09:47.441Z,62.68
2018-05-03T16:12:16.263Z,63.60
2018-05-03T16:14:44.841Z,63.55
2018-05-03T16:17:13.587Z,63.95
2018-05-03T16:19:42.403Z,65.06
2018-05-03T16:22:10.964Z,65.14
2018-05-03T16:24:39.527Z,65.25
2018-05-03T16:27:07.983Z,65.18
2018-05-03T16:29:36.757Z,65.48
2018-05-03T16:32:05.333Z,65.94
2018-05-03T16:34:34.029Z,65.87
2018-05-03T16:37:02.748Z,66.28
2018-05-03T16:39:31.331Z,66.21
2018-05-03T16:41:59.916Z,66.04
2018-05-03T16:44:28.491Z,65.94
2018-05-03T16:46:57.086Z,66.05
2018-05-03T16:49:25.663Z,65.40
2018-05-03T16:51:54.516Z,64.69
2018-05-03T16:54:23.199Z,63.60
2018-05-03T16:56:51.777Z,63.25
2018-05-03T16:59:20.448Z,62.13
2018-05-03T17:01:49.165Z,62.48
2018-05-03T17:04:17.742Z,63.53
2018-05-03T17:06:46.326Z,63.17
2018-05-03T17:09:14.914Z,63.97
2018-05-03T17:11:43.479Z,65.55
2018-05-03T17:14:12.108Z,63.31
2018-05-03T17:16:40.813Z,62.26
2018-05-03T17:19:09.410Z,60.35
2018-05-03T17:21:38.095Z,60.62
2018-05-03T17:24:06.668Z,59.90
2018-05-03T17:26:35.281Z,59.19
2018-05-03T17:29:03.939Z,59.17
2018-05-03T17:31:32.547Z,58.17
2018-05-03T17:34:01.102Z,59.06
2018-05-03T17:36:29.663Z,58.26
2018-05-03T17:38:58.046Z,57.16
2018-05-03T17:41:26.430Z,56.70
2018-05-03T17:43:55.000Z,56.20
2018-05-03T17:46:23.567Z,55.82
2018-05-03T17:48:52.241Z,55.71
2018-05-03T17:51:20.835Z,55.09
2018-05-03T17:53:49.574Z,55.11
2018-05-03T17:56:18.151Z,54.47
2018-05-03T17:58:46.745Z,54.72
2018-05-03T18:01:15.332Z,54.18
2018-05-03T18:03:43.912Z,53.72
2018-05-03T18:06:12.535Z,53.43
2018-05-03T18:08:41.856Z,53.71
2018-05-03T18:11:10.418Z,53.95
2018-05-03T18:13:38.990Z,53.94
2018-05-03T18:16:07.593Z,54.23
2018-05-03T18:18:36.423Z,54.49
2018-05-03T18:21:04.979Z,53.82
2018-05-03T18:23:33.540Z,53.76
2018-05-03T18:26:02.184Z,54.28
2018-05-03T18:28:30.750Z,54.29
2018-05-03T18:30:59.807Z,54.85
2018-05-03T18:33:29.291Z,54.38
2018-05-03T18:35:58.826Z,54.45
2018-05-03T18:38:27.404Z,54.42
2018-05-03T18:40:56.042Z,54.40
2018-05-03T18:43:35.301Z,54.24
2018-05-03T18:46:13.264Z,54.11
2018-05-03T18:48:44.051Z,54.22
2018-05-03T18:51:12.638Z,54.20
2018-05-03T18:53:41.030Z,54.60
2018-05-03T18:56:09.707Z,54.48
2018-05-03T18:58:38.717Z,54.65
2018-05-03T19:01:07.401Z,54.69
2018-05-03T19:03:36.155Z,54.94
2018-05-03T19:06:04.869Z,55.06
2018-05-03T19:08:33.531Z,55.18
2018-05-03T19:11:02.119Z,55.61
2018-05-03T19:13:32.196Z,55.37
2018-05-03T19:16:02.298Z,55.59
2018-05-03T19:18:30.972Z,55.99
2018-05-03T19:20:59.540Z,56.04
2018-05-03T19:23:28.105Z,56.04
2018-05-03T19:25:56.727Z,56.31
2018-05-03T19:28:25.353Z,56.50
2018-05-03T19:30:54.036Z,56.97
2018-05-03T19:33:22.622Z,57.15
2018-05-03T19:35:51.191Z,57.38
2018-05-03T19:38:19.751Z,57.75
2018-05-03T19:40:48.307Z,58.11
2018-05-03T19:43:16.896Z,58.34
2018-05-03T19:45:45.457Z,58.81
2018-05-03T19:48:14.058Z,59.01
2018-05-03T19:50:42.669Z,59.19
2018-05-03T19:53:11.463Z,59.26
2018-05-03T19:55:40.063Z,59.33
2018-05-03T19:58:09.422Z,59.30
2018-05-03T20:00:37.988Z,59.30
2018-05-03T20:03:06.560Z,59.22
2018-05-03T20:05:35.124Z,59.06
2018-05-03T20:08:03.709Z,59.49
2018-05-03T20:10:33.254Z,60.02
2018-05-03T20:13:01.915Z,60.45
2018-05-03T20:15:30.957Z,60.68
2018-05-03T20:17:59.536Z,60.90
2018-05-03T20:20:28.129Z,60.96
2018-05-03T20:22:56.471Z,60.57
2018-05-03T20:25:25.029Z,60.74
2018-05-03T20:27:54.412Z,60.71
2018-05-03T20:30:23.003Z,60.92
2018-05-03T20:32:51.603Z,61.02
2018-05-03T20:35:20.335Z,61.13
2018-05-03T20:37:48.938Z,60.72
2018-05-03T20:40:17.506Z,60.81
2018-05-03T20:42:46.092Z,60.85
2018-05-03T20:45:14.670Z,60.91
2018-05-03T20:47:43.772Z,61.07
2018-05-03T20:50:12.554Z,60.97
2018-05-03T20:52:41.124Z,60.80
2018-05-03T20:55:09.770Z,60.76
2018-05-03T20:57:38.384Z,61.37
2018-05-03T21:00:07.183Z,61.63
2018-05-03T21:02:35.748Z,61.69
2018-05-03T21:05:03.659Z,61.59
2018-05-03T21:07:32.228Z,61.64
2018-05-03T21:10:01.094Z,61.69
2018-05-03T21:12:29.676Z,61.75
2018-05-03T21:14:58.243Z,61.80
2018-05-03T21:17:26.859Z,61.79
2018-05-03T21:19:55.430Z,61.66
2018-05-03T21:22:24.039Z,61.96
2018-05-03T21:24:52.621Z,61.74
2018-05-03T21:27:20.871Z,61.66
2018-05-03T21:29:49.457Z,61.76
2018-05-03T21:32:18.021Z,61.92
2018-05-03T21:34:46.579Z,61.92
2018-05-03T21:37:15.214Z,61.97
2018-05-03T21:39:43.845Z,61.97
2018-05-03T21:42:12.479Z,61.81
2018-05-03T21:44:41.057Z,61.83
2018-05-03T21:47:09.647Z,61.77
2018-05-03T21:49:38.257Z,61.49
2018-05-03T21:52:06.871Z,61.46
2018-05-03T21:54:35.440Z,61.44
2018-05-03T21:57:04.007Z,61.34
2018-05-03T21:59:32.564Z,61.37
2018-05-03T22:02:01.133Z,61.32
2018-05-03T22:04:29.474Z,61.45
2018-05-03T22:06:58.042Z,61.43
2018-05-03T22:09:26.279Z,61.43
2018-05-03T22:11:54.832Z,61.56
2018-05-03T22:14:23.416Z,61.53
2018-05-03T22:16:52.003Z,61.29
2018-05-03T22:19:20.568Z,61.13
2018-05-03T22:21:50.022Z,61.16
2018-05-03T22:24:18.388Z,61.25
2018-05-03T22:26:46.984Z,61.17
2018-05-03T22:29:15.548Z,61.32
2018-05-03T22:31:44.116Z,61.35
2018-05-03T22:34:12.723Z,61.51
2018-05-03T22:36:41.360Z,61.44
2018-05-03T22:39:10.220Z,61.48
2018-05-03T22:41:38.839Z,61.46
2018-05-03T22:44:07.403Z,61.26
2018-05-03T22:46:35.998Z,61.25
2018-05-03T22:49:04.571Z,61.15
2018-05-03T22:51:33.197Z,61.29
2018-05-03T22:54:01.790Z,61.29
2018-05-03T22:56:30.402Z,61.23
2018-05-03T22:58:58.978Z,61.10
2018-05-03T23:01:27.546Z,61.17
2018-05-03T23:03:56.205Z,61.09
2018-05-03T23:06:24.799Z,61.11
2018-05-03T23:08:53.387Z,61.27
2018-05-03T23:11:22.018Z,61.35
2018-05-03T23:13:50.637Z,61.30
2018-05-03T23:16:19.191Z,61.47
2018-05-03T23:18:47.761Z,61.54
2018-05-03T23:21:16.323Z,61.28
2018-05-03T23:23:44.929Z,61.16
2018-05-03T23:26:13.520Z,61.13
2018-05-03T23:28:42.106Z,61.20
2018-05-03T23:31:10.741Z,61.29
2018-05-03T23:33:39.304Z,61.58
2018-05-03T23:36:07.911Z,61.22
2018-05-03T23:38:36.477Z,61.28
2018-05-03T23:41:05.039Z,61.40
2018-05-03T23:43:33.648Z,61.40
2018-05-03T23:46:02.220Z,61.47
2018-05-03T23:48:30.834Z,61.44
2018-05-03T23:50:59.399Z,61.27
2018-05-03T23:53:28.009Z,61.31
2018-05-03T23:55:56.227Z,61.47
2018-05-03T23:58:24.835Z,61.09
